sensor_id;sensor_type;location;lat;lon;timestamp;temperature;humidity
22145;DHT22;11238;48.730;11.566;2023-07-16T00:01:39;22.40;99.90
22145;DHT22;11238;48.730;11.566;2023-07-16T00:04:05;22.40;99.90
22145;DHT22;11238;48.730;11.566;2023-07-16T00:06:31;22.40;99.90
22145;DHT22;11238;48.730;11.566;2023-07-16T00:08:57;22.40;99.90
22145;DHT22;11238;48.730;11.566;2023-07-16T00:11:23;22.40;99.90
22145;DHT22;11238;48.730;11.566;2023-07-16T00:13:49;22.40;99.90
22145;DHT22;11238;48.730;11.566;2023-07-16T00:16:15;22.40;99.90
22145;DHT22;11238;48.730;11.566;2023-07-16T00:18:47;22.50;99.90
22145;DHT22;11238;48.730;11.566;2023-07-16T00:21:13;22.50;99.90
22145;DHT22;11238;48.730;11.566;2023-07-16T00:23:39;22.50;99.90
22145;DHT22;11238;48.730;11.566;2023-07-16T00:26:04;22.40;99.90
22145;DHT22;11238;48.730;11.566;2023-07-16T00:28:30;22.30;99.90
22145;DHT22;11238;48.730;11.566;2023-07-16T00:30:56;22.40;99.90
22145;DHT22;11238;48.730;11.566;2023-07-16T00:33:21;22.30;99.90
22145;DHT22;11238;48.730;11.566;2023-07-16T00:35:48;22.30;99.90
22145;DHT22;11238;48.730;11.566;2023-07-16T00:38:16;22.20;99.90
22145;DHT22;11238;48.730;11.566;2023-07-16T00:40:43;22.20;99.90
22145;DHT22;11238;48.730;11.566;2023-07-16T00:43:09;22.20;99.90
22145;DHT22;11238;48.730;11.566;2023-07-16T00:45:35;22.10;99.90
22145;DHT22;11238;48.730;11.566;2023-07-16T00:48:02;22.10;99.90
22145;DHT22;11238;48.730;11.566;2023-07-16T00:50:27;22.00;99.90
22145;DHT22;11238;48.730;11.566;2023-07-16T00:52:54;21.80;99.90
22145;DHT22;11238;48.730;11.566;2023-07-16T00:55:20;21.80;99.90
22145;DHT22;11238;48.730;11.566;2023-07-16T00:57:46;21.70;99.90
22145;DHT22;11238;48.730;11.566;2023-07-16T01:00:13;21.70;99.90
22145;DHT22;11238;48.730;11.566;2023-07-16T01:02:39;21.60;99.90
22145;DHT22;11238;48.730;11.566;2023-07-16T01:05:05;21.40;99.90
22145;DHT22;11238;48.730;11.566;2023-07-16T01:07:31;21.50;99.90
22145;DHT22;11238;48.730;11.566;2023-07-16T01:09:58;21.40;99.90
22145;DHT22;11238;48.730;11.566;2023-07-16T01:12:25;21.20;99.90
22145;DHT22;11238;48.730;11.566;2023-07-16T01:14:52;21.20;99.90
22145;DHT22;11238;48.730;11.566;2023-07-16T01:17:18;21.20;99.90
22145;DHT22;11238;48.730;11.566;2023-07-16T01:19:44;21.10;99.90
22145;DHT22;11238;48.730;11.566;2023-07-16T01:30:30;20.90;99.90
22145;DHT22;11238;48.730;11.566;2023-07-16T01:32:57;20.80;99.90
22145;DHT22;11238;48.730;11.566;2023-07-16T01:35:23;20.90;99.90
22145;DHT22;11238;48.730;11.566;2023-07-16T01:37:49;21.00;99.90
22145;DHT22;11238;48.730;11.566;2023-07-16T01:40:15;21.00;99.90
22145;DHT22;11238;48.730;11.566;2023-07-16T01:42:41;21.00;99.90
22145;DHT22;11238;48.730;11.566;2023-07-16T01:45:09;20.90;99.90
22145;DHT22;11238;48.730;11.566;2023-07-16T01:47:55;21.00;99.90
22145;DHT22;11238;48.730;11.566;2023-07-16T01:50:24;21.00;99.90
22145;DHT22;11238;48.730;11.566;2023-07-16T01:52:50;21.00;99.90
22145;DHT22;11238;48.730;11.566;2023-07-16T01:55:16;21.10;99.90
22145;DHT22;11238;48.730;11.566;2023-07-16T01:58:04;21.10;99.90
22145;DHT22;11238;48.730;11.566;2023-07-16T02:00:31;21.00;99.90
22145;DHT22;11238;48.730;11.566;2023-07-16T02:02:57;21.10;99.90
22145;DHT22;11238;48.730;11.566;2023-07-16T02:05:23;21.00;99.90
22145;DHT22;11238;48.730;11.566;2023-07-16T02:07:49;21.00;99.90
22145;DHT22;11238;48.730;11.566;2023-07-16T02:10:14;20.90;99.90
22145;DHT22;11238;48.730;11.566;2023-07-16T02:12:40;20.90;99.90
22145;DHT22;11238;48.730;11.566;2023-07-16T02:15:06;20.80;99.90
22145;DHT22;11238;48.730;11.566;2023-07-16T02:17:36;20.80;99.90
22145;DHT22;11238;48.730;11.566;2023-07-16T02:20:01;20.70;99.90
22145;DHT22;11238;48.730;11.566;2023-07-16T02:22:30;20.60;99.90
22145;DHT22;11238;48.730;11.566;2023-07-16T02:24:56;20.40;99.90
22145;DHT22;11238;48.730;11.566;2023-07-16T02:27:22;20.40;99.90
22145;DHT22;11238;48.730;11.566;2023-07-16T02:29:48;20.50;99.90
22145;DHT22;11238;48.730;11.566;2023-07-16T02:32:15;20.40;99.90
22145;DHT22;11238;48.730;11.566;2023-07-16T02:34:40;20.50;99.90
22145;DHT22;11238;48.730;11.566;2023-07-16T02:37:06;20.60;99.90
22145;DHT22;11238;48.730;11.566;2023-07-16T02:39:32;20.60;99.90
22145;DHT22;11238;48.730;11.566;2023-07-16T02:41:58;20.50;99.90
22145;DHT22;11238;48.730;11.566;2023-07-16T02:44:24;20.50;99.90
22145;DHT22;11238;48.730;11.566;2023-07-16T02:46:50;20.60;99.90
22145;DHT22;11238;48.730;11.566;2023-07-16T02:49:16;20.60;99.90
22145;DHT22;11238;48.730;11.566;2023-07-16T02:51:45;20.60;99.90
22145;DHT22;11238;48.730;11.566;2023-07-16T02:54:11;20.60;99.90
22145;DHT22;11238;48.730;11.566;2023-07-16T02:56:37;20.60;99.90
22145;DHT22;11238;48.730;11.566;2023-07-16T02:59:03;20.50;99.90
22145;DHT22;11238;48.730;11.566;2023-07-16T03:01:28;20.50;99.90
22145;DHT22;11238;48.730;11.566;2023-07-16T03:03:55;20.40;99.90
22145;DHT22;11238;48.730;11.566;2023-07-16T03:06:22;20.40;99.90
22145;DHT22;11238;48.730;11.566;2023-07-16T03:08:50;20.40;99.90
22145;DHT22;11238;48.730;11.566;2023-07-16T03:11:17;20.40;99.90
22145;DHT22;11238;48.730;11.566;2023-07-16T03:13:43;20.40;99.90
22145;DHT22;11238;48.730;11.566;2023-07-16T03:16:09;20.40;99.90
22145;DHT22;11238;48.730;11.566;2023-07-16T03:18:36;20.40;99.90
22145;DHT22;11238;48.730;11.566;2023-07-16T03:21:01;20.40;99.90
22145;DHT22;11238;48.730;11.566;2023-07-16T03:23:28;20.40;99.90
22145;DHT22;11238;48.730;11.566;2023-07-16T03:25:54;20.40;99.90
22145;DHT22;11238;48.730;11.566;2023-07-16T03:28:20;20.40;99.90
22145;DHT22;11238;48.730;11.566;2023-07-16T03:30:47;20.40;99.90
22145;DHT22;11238;48.730;11.566;2023-07-16T03:33:13;20.40;99.90
22145;DHT22;11238;48.730;11.566;2023-07-16T03:35:45;20.40;99.90
22145;DHT22;11238;48.730;11.566;2023-07-16T03:38:12;20.40;99.90
22145;DHT22;11238;48.730;11.566;2023-07-16T03:40:38;20.30;99.90
22145;DHT22;11238;48.730;11.566;2023-07-16T03:43:06;20.40;99.90
22145;DHT22;11238;48.730;11.566;2023-07-16T03:45:33;20.40;99.90
22145;DHT22;11238;48.730;11.566;2023-07-16T03:47:59;20.40;99.90
22145;DHT22;11238;48.730;11.566;2023-07-16T03:50:25;20.30;99.90
22145;DHT22;11238;48.730;11.566;2023-07-16T03:52:50;20.10;99.90
22145;DHT22;11238;48.730;11.566;2023-07-16T03:55:16;20.00;99.90
22145;DHT22;11238;48.730;11.566;2023-07-16T03:57:43;20.10;99.90
22145;DHT22;11238;48.730;11.566;2023-07-16T04:00:09;20.20;99.90
22145;DHT22;11238;48.730;11.566;2023-07-16T04:02:47;20.10;99.90
22145;DHT22;11238;48.730;11.566;2023-07-16T04:05:16;20.20;99.90
22145;DHT22;11238;48.730;11.566;2023-07-16T04:07:42;20.20;99.90
22145;DHT22;11238;48.730;11.566;2023-07-16T04:10:08;20.10;99.90
22145;DHT22;11238;48.730;11.566;2023-07-16T04:12:34;20.20;99.90
22145;DHT22;11238;48.730;11.566;2023-07-16T04:15:00;20.10;99.90
22145;DHT22;11238;48.730;11.566;2023-07-16T04:17:26;20.10;99.90
22145;DHT22;11238;48.730;11.566;2023-07-16T04:19:52;20.10;99.90
22145;DHT22;11238;48.730;11.566;2023-07-16T04:22:18;20.00;99.90
22145;DHT22;11238;48.730;11.566;2023-07-16T04:24:43;20.10;99.90
22145;DHT22;11238;48.730;11.566;2023-07-16T04:27:09;20.00;99.90
22145;DHT22;11238;48.730;11.566;2023-07-16T04:29:35;20.00;99.90
22145;DHT22;11238;48.730;11.566;2023-07-16T04:32:02;20.00;99.90
22145;DHT22;11238;48.730;11.566;2023-07-16T04:34:28;19.90;99.90
22145;DHT22;11238;48.730;11.566;2023-07-16T04:36:54;19.90;99.90
22145;DHT22;11238;48.730;11.566;2023-07-16T04:39:20;19.90;99.90
22145;DHT22;11238;48.730;11.566;2023-07-16T04:41:46;19.90;99.90
22145;DHT22;11238;48.730;11.566;2023-07-16T04:44:11;19.90;99.90
22145;DHT22;11238;48.730;11.566;2023-07-16T04:46:37;19.80;99.90
22145;DHT22;11238;48.730;11.566;2023-07-16T04:49:04;19.60;99.90
22145;DHT22;11238;48.730;11.566;2023-07-16T04:51:30;19.60;99.90
22145;DHT22;11238;48.730;11.566;2023-07-16T04:53:55;19.40;99.90
22145;DHT22;11238;48.730;11.566;2023-07-16T04:56:21;19.40;99.90
22145;DHT22;11238;48.730;11.566;2023-07-16T04:58:48;19.40;99.90
22145;DHT22;11238;48.730;11.566;2023-07-16T05:01:14;19.40;99.90
22145;DHT22;11238;48.730;11.566;2023-07-16T05:03:39;19.40;99.90
22145;DHT22;11238;48.730;11.566;2023-07-16T05:06:05;19.20;99.90
22145;DHT22;11238;48.730;11.566;2023-07-16T05:08:34;19.20;99.90
22145;DHT22;11238;48.730;11.566;2023-07-16T05:11:01;19.20;99.90
22145;DHT22;11238;48.730;11.566;2023-07-16T05:13:27;19.20;99.90
22145;DHT22;11238;48.730;11.566;2023-07-16T05:15:53;19.20;99.90
22145;DHT22;11238;48.730;11.566;2023-07-16T05:18:19;19.10;99.90
22145;DHT22;11238;48.730;11.566;2023-07-16T05:20:48;19.20;99.90
22145;DHT22;11238;48.730;11.566;2023-07-16T05:23:14;18.90;99.90
22145;DHT22;11238;48.730;11.566;2023-07-16T05:25:49;18.80;99.90
22145;DHT22;11238;48.730;11.566;2023-07-16T05:28:15;18.80;99.90
22145;DHT22;11238;48.730;11.566;2023-07-16T05:30:41;18.80;99.90
22145;DHT22;11238;48.730;11.566;2023-07-16T05:33:07;18.90;99.90
22145;DHT22;11238;48.730;11.566;2023-07-16T05:35:33;18.80;99.90
22145;DHT22;11238;48.730;11.566;2023-07-16T05:37:59;18.90;99.90
22145;DHT22;11238;48.730;11.566;2023-07-16T05:40:24;19.10;99.90
22145;DHT22;11238;48.730;11.566;2023-07-16T05:42:50;19.20;99.90
22145;DHT22;11238;48.730;11.566;2023-07-16T05:45:16;19.30;99.90
22145;DHT22;11238;48.730;11.566;2023-07-16T05:47:42;19.30;99.90
22145;DHT22;11238;48.730;11.566;2023-07-16T05:50:08;19.50;99.90
22145;DHT22;11238;48.730;11.566;2023-07-16T05:52:34;19.70;99.90
22145;DHT22;11238;48.730;11.566;2023-07-16T05:55:00;19.80;99.90
22145;DHT22;11238;48.730;11.566;2023-07-16T05:57:26;20.00;99.90
22145;DHT22;11238;48.730;11.566;2023-07-16T05:59:52;20.10;99.90
22145;DHT22;11238;48.730;11.566;2023-07-16T06:02:17;20.10;99.90
22145;DHT22;11238;48.730;11.566;2023-07-16T06:04:46;20.20;99.90
22145;DHT22;11238;48.730;11.566;2023-07-16T06:07:13;20.40;99.90
22145;DHT22;11238;48.730;11.566;2023-07-16T06:10:00;20.40;99.90
22145;DHT22;11238;48.730;11.566;2023-07-16T06:12:28;20.50;99.90
22145;DHT22;11238;48.730;11.566;2023-07-16T06:14:54;20.50;99.90
22145;DHT22;11238;48.730;11.566;2023-07-16T06:17:20;20.40;99.90
22145;DHT22;11238;48.730;11.566;2023-07-16T06:19:46;20.40;99.90
22145;DHT22;11238;48.730;11.566;2023-07-16T06:22:14;20.40;99.90
22145;DHT22;11238;48.730;11.566;2023-07-16T06:24:40;20.20;99.90
22145;DHT22;11238;48.730;11.566;2023-07-16T06:27:06;20.10;99.90
22145;DHT22;11238;48.730;11.566;2023-07-16T06:29:32;20.10;99.90
22145;DHT22;11238;48.730;11.566;2023-07-16T06:31:58;20.20;99.90
22145;DHT22;11238;48.730;11.566;2023-07-16T06:34:25;20.10;99.90
22145;DHT22;11238;48.730;11.566;2023-07-16T06:36:51;20.20;99.90
22145;DHT22;11238;48.730;11.566;2023-07-16T06:39:17;20.10;99.90
22145;DHT22;11238;48.730;11.566;2023-07-16T06:41:44;20.10;99.90
22145;DHT22;11238;48.730;11.566;2023-07-16T06:44:09;20.10;99.90
22145;DHT22;11238;48.730;11.566;2023-07-16T06:46:36;20.10;99.90
22145;DHT22;11238;48.730;11.566;2023-07-16T06:49:01;20.00;99.90
22145;DHT22;11238;48.730;11.566;2023-07-16T06:51:27;20.10;99.90
22145;DHT22;11238;48.730;11.566;2023-07-16T06:53:55;20.10;99.90
22145;DHT22;11238;48.730;11.566;2023-07-16T06:56:21;20.10;99.90
22145;DHT22;11238;48.730;11.566;2023-07-16T06:58:50;20.20;99.90
22145;DHT22;11238;48.730;11.566;2023-07-16T07:01:16;20.30;99.90
22145;DHT22;11238;48.730;11.566;2023-07-16T07:03:42;20.40;99.90
22145;DHT22;11238;48.730;11.566;2023-07-16T07:06:08;20.50;99.90
22145;DHT22;11238;48.730;11.566;2023-07-16T07:08:36;20.50;99.90
22145;DHT22;11238;48.730;11.566;2023-07-16T07:11:04;20.40;99.90
22145;DHT22;11238;48.730;11.566;2023-07-16T07:13:30;20.40;99.90
22145;DHT22;11238;48.730;11.566;2023-07-16T07:15:56;20.30;99.90
22145;DHT22;11238;48.730;11.566;2023-07-16T07:18:22;20.30;99.90
22145;DHT22;11238;48.730;11.566;2023-07-16T07:20:48;20.40;99.90
22145;DHT22;11238;48.730;11.566;2023-07-16T07:23:16;20.50;99.90
22145;DHT22;11238;48.730;11.566;2023-07-16T07:25:41;20.40;99.90
22145;DHT22;11238;48.730;11.566;2023-07-16T07:28:07;20.40;99.90
22145;DHT22;11238;48.730;11.566;2023-07-16T07:30:33;20.50;99.90
22145;DHT22;11238;48.730;11.566;2023-07-16T07:32:59;20.30;99.90
22145;DHT22;11238;48.730;11.566;2023-07-16T07:35:25;20.20;99.90
22145;DHT22;11238;48.730;11.566;2023-07-16T07:37:51;20.20;99.90
22145;DHT22;11238;48.730;11.566;2023-07-16T07:40:17;20.00;99.90
22145;DHT22;11238;48.730;11.566;2023-07-16T07:42:43;20.00;99.90
22145;DHT22;11238;48.730;11.566;2023-07-16T07:45:09;20.00;99.90
22145;DHT22;11238;48.730;11.566;2023-07-16T07:47:35;19.90;99.90
22145;DHT22;11238;48.730;11.566;2023-07-16T07:50:01;20.00;99.90
22145;DHT22;11238;48.730;11.566;2023-07-16T07:52:27;20.00;99.90
22145;DHT22;11238;48.730;11.566;2023-07-16T07:54:53;19.90;99.90
22145;DHT22;11238;48.730;11.566;2023-07-16T07:57:20;20.00;99.90
22145;DHT22;11238;48.730;11.566;2023-07-16T07:59:46;19.90;99.90
22145;DHT22;11238;48.730;11.566;2023-07-16T08:02:12;20.00;99.90
22145;DHT22;11238;48.730;11.566;2023-07-16T08:04:38;20.00;99.90
22145;DHT22;11238;48.730;11.566;2023-07-16T08:07:04;20.10;99.90
22145;DHT22;11238;48.730;11.566;2023-07-16T08:09:30;20.20;99.90
22145;DHT22;11238;48.730;11.566;2023-07-16T08:11:56;20.20;99.90
22145;DHT22;11238;48.730;11.566;2023-07-16T08:14:22;20.20;99.90
22145;DHT22;11238;48.730;11.566;2023-07-16T08:16:48;20.20;99.90
22145;DHT22;11238;48.730;11.566;2023-07-16T08:19:32;20.20;99.90
22145;DHT22;11238;48.730;11.566;2023-07-16T08:25:38;20.20;99.90
22145;DHT22;11238;48.730;11.566;2023-07-16T08:28:09;20.10;99.90
22145;DHT22;11238;48.730;11.566;2023-07-16T08:31:03;20.10;99.90
22145;DHT22;11238;48.730;11.566;2023-07-16T08:33:48;20.10;99.90
22145;DHT22;11238;48.730;11.566;2023-07-16T08:36:13;20.00;99.90
22145;DHT22;11238;48.730;11.566;2023-07-16T08:38:41;20.10;99.90
22145;DHT22;11238;48.730;11.566;2023-07-16T08:41:07;19.90;99.90
22145;DHT22;11238;48.730;11.566;2023-07-16T08:43:33;19.90;99.90
22145;DHT22;11238;48.730;11.566;2023-07-16T08:46:01;19.90;99.90
22145;DHT22;11238;48.730;11.566;2023-07-16T08:48:28;19.80;99.90
22145;DHT22;11238;48.730;11.566;2023-07-16T08:50:55;20.00;99.90
22145;DHT22;11238;48.730;11.566;2023-07-16T08:53:23;20.10;99.90
22145;DHT22;11238;48.730;11.566;2023-07-16T08:55:49;20.30;99.90
22145;DHT22;11238;48.730;11.566;2023-07-16T08:58:15;20.40;99.90
22145;DHT22;11238;48.730;11.566;2023-07-16T09:00:44;20.60;99.90
22145;DHT22;11238;48.730;11.566;2023-07-16T09:03:14;20.70;99.90
22145;DHT22;11238;48.730;11.566;2023-07-16T09:05:46;20.60;99.90
22145;DHT22;11238;48.730;11.566;2023-07-16T09:08:12;20.70;99.90
22145;DHT22;11238;48.730;11.566;2023-07-16T09:10:43;20.70;99.90
22145;DHT22;11238;48.730;11.566;2023-07-16T09:13:09;20.70;99.90
22145;DHT22;11238;48.730;11.566;2023-07-16T09:15:44;20.80;99.90
22145;DHT22;11238;48.730;11.566;2023-07-16T09:18:23;20.70;99.90
22145;DHT22;11238;48.730;11.566;2023-07-16T09:20:59;20.60;99.90
22145;DHT22;11238;48.730;11.566;2023-07-16T09:23:34;20.50;99.90
22145;DHT22;11238;48.730;11.566;2023-07-16T09:26:00;20.50;99.90
22145;DHT22;11238;48.730;11.566;2023-07-16T09:28:26;20.50;99.90
22145;DHT22;11238;48.730;11.566;2023-07-16T09:30:52;20.30;99.90
22145;DHT22;11238;48.730;11.566;2023-07-16T09:33:20;20.40;99.90
22145;DHT22;11238;48.730;11.566;2023-07-16T09:35:48;20.50;99.90
22145;DHT22;11238;48.730;11.566;2023-07-16T09:38:16;20.50;99.90
22145;DHT22;11238;48.730;11.566;2023-07-16T09:40:41;20.50;99.90
22145;DHT22;11238;48.730;11.566;2023-07-16T09:43:12;20.50;99.90
22145;DHT22;11238;48.730;11.566;2023-07-16T09:45:38;20.60;99.90
22145;DHT22;11238;48.730;11.566;2023-07-16T09:48:04;20.70;99.90
22145;DHT22;11238;48.730;11.566;2023-07-16T09:50:32;20.80;99.90
22145;DHT22;11238;48.730;11.566;2023-07-16T09:53:05;20.90;99.90
22145;DHT22;11238;48.730;11.566;2023-07-16T09:55:32;21.10;99.90
22145;DHT22;11238;48.730;11.566;2023-07-16T09:58:06;21.10;99.90
22145;DHT22;11238;48.730;11.566;2023-07-16T10:00:33;21.20;99.90
22145;DHT22;11238;48.730;11.566;2023-07-16T10:03:00;21.30;99.90
22145;DHT22;11238;48.730;11.566;2023-07-16T10:05:28;21.20;99.90
22145;DHT22;11238;48.730;11.566;2023-07-16T10:07:59;21.30;99.90
22145;DHT22;11238;48.730;11.566;2023-07-16T10:10:27;21.50;99.90
22145;DHT22;11238;48.730;11.566;2023-07-16T10:13:03;21.60;99.90
22145;DHT22;11238;48.730;11.566;2023-07-16T10:15:29;21.70;99.90
22145;DHT22;11238;48.730;11.566;2023-07-16T10:17:56;21.70;99.90
22145;DHT22;11238;48.730;11.566;2023-07-16T10:20:36;21.60;99.90
22145;DHT22;11238;48.730;11.566;2023-07-16T10:23:12;21.80;99.90
22145;DHT22;11238;48.730;11.566;2023-07-16T10:25:39;21.90;99.90
22145;DHT22;11238;48.730;11.566;2023-07-16T10:28:04;22.00;99.90
22145;DHT22;11238;48.730;11.566;2023-07-16T10:30:32;22.10;99.90
22145;DHT22;11238;48.730;11.566;2023-07-16T10:32:58;22.00;99.90
22145;DHT22;11238;48.730;11.566;2023-07-16T10:35:26;22.10;99.90
22145;DHT22;11238;48.730;11.566;2023-07-16T10:37:54;22.30;99.90
22145;DHT22;11238;48.730;11.566;2023-07-16T10:40:20;22.50;99.90
22145;DHT22;11238;48.730;11.566;2023-07-16T10:42:46;22.50;99.90
22145;DHT22;11238;48.730;11.566;2023-07-16T10:45:15;22.70;99.90
22145;DHT22;11238;48.730;11.566;2023-07-16T10:47:53;22.80;99.90
22145;DHT22;11238;48.730;11.566;2023-07-16T10:50:19;22.90;99.90
22145;DHT22;11238;48.730;11.566;2023-07-16T10:52:53;22.90;99.90
22145;DHT22;11238;48.730;11.566;2023-07-16T10:55:19;23.00;99.90
22145;DHT22;11238;48.730;11.566;2023-07-16T10:57:47;23.10;99.90
22145;DHT22;11238;48.730;11.566;2023-07-16T11:00:16;23.10;99.90
22145;DHT22;11238;48.730;11.566;2023-07-16T11:02:43;23.20;99.90
22145;DHT22;11238;48.730;11.566;2023-07-16T11:05:10;23.30;99.90
22145;DHT22;11238;48.730;11.566;2023-07-16T11:07:37;23.20;99.90
22145;DHT22;11238;48.730;11.566;2023-07-16T11:10:03;23.20;99.90
22145;DHT22;11238;48.730;11.566;2023-07-16T11:12:29;23.10;99.90
22145;DHT22;11238;48.730;11.566;2023-07-16T11:14:56;23.10;99.90
22145;DHT22;11238;48.730;11.566;2023-07-16T11:17:24;23.30;99.90
22145;DHT22;11238;48.730;11.566;2023-07-16T11:19:53;23.40;99.90
22145;DHT22;11238;48.730;11.566;2023-07-16T11:22:23;23.60;99.90
22145;DHT22;11238;48.730;11.566;2023-07-16T11:24:51;23.80;99.90
22145;DHT22;11238;48.730;11.566;2023-07-16T11:27:20;23.90;99.90
22145;DHT22;11238;48.730;11.566;2023-07-16T11:29:47;24.20;99.90
22145;DHT22;11238;48.730;11.566;2023-07-16T11:32:25;24.10;99.90
22145;DHT22;11238;48.730;11.566;2023-07-16T11:34:55;24.20;99.90
22145;DHT22;11238;48.730;11.566;2023-07-16T11:37:23;24.50;99.90
22145;DHT22;11238;48.730;11.566;2023-07-16T11:39:50;24.40;99.90
22145;DHT22;11238;48.730;11.566;2023-07-16T11:44:56;24.70;99.90
22145;DHT22;11238;48.730;11.566;2023-07-16T11:47:22;24.70;99.90
22145;DHT22;11238;48.730;11.566;2023-07-16T11:49:48;24.80;99.90
22145;DHT22;11238;48.730;11.566;2023-07-16T11:52:15;24.80;99.90
22145;DHT22;11238;48.730;11.566;2023-07-16T11:54:44;24.60;99.90
22145;DHT22;11238;48.730;11.566;2023-07-16T11:57:10;24.40;99.90
22145;DHT22;11238;48.730;11.566;2023-07-16T11:59:36;24.40;99.90
22145;DHT22;11238;48.730;11.566;2023-07-16T12:02:02;24.70;99.90
22145;DHT22;11238;48.730;11.566;2023-07-16T12:04:29;24.70;99.90
22145;DHT22;11238;48.730;11.566;2023-07-16T12:06:54;24.40;99.90
22145;DHT22;11238;48.730;11.566;2023-07-16T12:09:20;24.60;99.90
22145;DHT22;11238;48.730;11.566;2023-07-16T12:11:46;24.90;99.90
22145;DHT22;11238;48.730;11.566;2023-07-16T12:14:12;24.90;99.90
22145;DHT22;11238;48.730;11.566;2023-07-16T12:16:38;25.00;99.90
22145;DHT22;11238;48.730;11.566;2023-07-16T12:19:07;25.00;99.90
22145;DHT22;11238;48.730;11.566;2023-07-16T12:21:33;25.00;99.90
22145;DHT22;11238;48.730;11.566;2023-07-16T12:23:58;24.80;99.90
22145;DHT22;11238;48.730;11.566;2023-07-16T12:26:24;24.50;99.90
22145;DHT22;11238;48.730;11.566;2023-07-16T12:28:50;24.70;99.90
22145;DHT22;11238;48.730;11.566;2023-07-16T12:31:15;24.90;99.90
22145;DHT22;11238;48.730;11.566;2023-07-16T12:34:12;24.70;99.90
22145;DHT22;11238;48.730;11.566;2023-07-16T12:36:37;24.80;99.90
22145;DHT22;11238;48.730;11.566;2023-07-16T12:39:03;25.00;99.90
22145;DHT22;11238;48.730;11.566;2023-07-16T12:41:29;25.30;99.90
22145;DHT22;11238;48.730;11.566;2023-07-16T12:43:58;25.60;99.90
22145;DHT22;11238;48.730;11.566;2023-07-16T12:46:24;25.80;99.90
22145;DHT22;11238;48.730;11.566;2023-07-16T12:48:50;25.90;99.90
22145;DHT22;11238;48.730;11.566;2023-07-16T12:51:16;26.00;99.90
22145;DHT22;11238;48.730;11.566;2023-07-16T12:53:41;26.10;99.90
22145;DHT22;11238;48.730;11.566;2023-07-16T12:56:09;25.80;99.90
22145;DHT22;11238;48.730;11.566;2023-07-16T12:58:35;25.80;99.90
22145;DHT22;11238;48.730;11.566;2023-07-16T13:01:01;26.00;99.90
22145;DHT22;11238;48.730;11.566;2023-07-16T13:03:28;26.20;99.90
22145;DHT22;11238;48.730;11.566;2023-07-16T13:05:57;26.40;99.90
22145;DHT22;11238;48.730;11.566;2023-07-16T13:08:23;26.20;99.20
22145;DHT22;11238;48.730;11.566;2023-07-16T13:10:50;26.20;99.90
22145;DHT22;11238;48.730;11.566;2023-07-16T13:13:19;26.10;99.20
22145;DHT22;11238;48.730;11.566;2023-07-16T13:15:45;26.00;99.60
22145;DHT22;11238;48.730;11.566;2023-07-16T13:18:10;25.90;98.30
22145;DHT22;11238;48.730;11.566;2023-07-16T13:20:37;25.70;98.00
22145;DHT22;11238;48.730;11.566;2023-07-16T13:23:03;25.80;99.30
22145;DHT22;11238;48.730;11.566;2023-07-16T13:25:29;25.90;99.50
22145;DHT22;11238;48.730;11.566;2023-07-16T13:27:56;26.20;98.80
22145;DHT22;11238;48.730;11.566;2023-07-16T13:30:24;26.40;99.00
22145;DHT22;11238;48.730;11.566;2023-07-16T13:32:51;26.70;98.00
22145;DHT22;11238;48.730;11.566;2023-07-16T13:35:21;26.70;96.00
22145;DHT22;11238;48.730;11.566;2023-07-16T13:37:47;26.70;97.40
22145;DHT22;11238;48.730;11.566;2023-07-16T13:40:13;26.60;97.80
22145;DHT22;11238;48.730;11.566;2023-07-16T13:42:42;26.40;97.20
22145;DHT22;11238;48.730;11.566;2023-07-16T13:45:09;25.90;96.40
22145;DHT22;11238;48.730;11.566;2023-07-16T13:47:34;25.90;99.00
22145;DHT22;11238;48.730;11.566;2023-07-16T13:50:00;25.90;96.80
22145;DHT22;11238;48.730;11.566;2023-07-16T13:52:26;26.00;97.40
22145;DHT22;11238;48.730;11.566;2023-07-16T13:54:52;26.20;95.80
22145;DHT22;11238;48.730;11.566;2023-07-16T13:57:18;26.20;96.50
22145;DHT22;11238;48.730;11.566;2023-07-16T13:59:44;26.00;97.40
22145;DHT22;11238;48.730;11.566;2023-07-16T14:02:10;25.70;96.30
22145;DHT22;11238;48.730;11.566;2023-07-16T14:04:36;26.00;97.40
22145;DHT22;11238;48.730;11.566;2023-07-16T14:07:03;26.10;95.60
22145;DHT22;11238;48.730;11.566;2023-07-16T14:09:29;26.30;97.30
22145;DHT22;11238;48.730;11.566;2023-07-16T14:11:54;26.50;97.40
22145;DHT22;11238;48.730;11.566;2023-07-16T14:14:21;26.90;96.10
22145;DHT22;11238;48.730;11.566;2023-07-16T14:16:48;26.80;94.70
22145;DHT22;11238;48.730;11.566;2023-07-16T14:19:14;26.70;95.60
22145;DHT22;11238;48.730;11.566;2023-07-16T14:22:01;26.70;95.90
22145;DHT22;11238;48.730;11.566;2023-07-16T14:24:27;26.90;96.60
22145;DHT22;11238;48.730;11.566;2023-07-16T14:26:53;26.90;95.50
22145;DHT22;11238;48.730;11.566;2023-07-16T14:29:19;27.10;94.50
22145;DHT22;11238;48.730;11.566;2023-07-16T14:31:45;27.10;93.80
22145;DHT22;11238;48.730;11.566;2023-07-16T14:34:10;27.00;92.90
22145;DHT22;11238;48.730;11.566;2023-07-16T14:36:36;26.80;92.20
22145;DHT22;11238;48.730;11.566;2023-07-16T14:39:02;26.90;93.00
22145;DHT22;11238;48.730;11.566;2023-07-16T14:42:09;27.10;93.50
22145;DHT22;11238;48.730;11.566;2023-07-16T14:45:00;27.10;93.40
22145;DHT22;11238;48.730;11.566;2023-07-16T14:47:45;27.10;92.60
22145;DHT22;11238;48.730;11.566;2023-07-16T14:50:42;27.10;91.20
22145;DHT22;11238;48.730;11.566;2023-07-16T14:53:08;26.90;91.30
22145;DHT22;11238;48.730;11.566;2023-07-16T14:55:34;26.80;90.90
22145;DHT22;11238;48.730;11.566;2023-07-16T14:58:00;26.60;90.50
22145;DHT22;11238;48.730;11.566;2023-07-16T15:00:25;26.40;91.50
22145;DHT22;11238;48.730;11.566;2023-07-16T15:02:51;26.30;91.40
22145;DHT22;11238;48.730;11.566;2023-07-16T15:05:18;26.40;91.30
22145;DHT22;11238;48.730;11.566;2023-07-16T15:07:44;26.30;90.90
22145;DHT22;11238;48.730;11.566;2023-07-16T15:10:10;26.30;92.40
22145;DHT22;11238;48.730;11.566;2023-07-16T15:12:42;26.40;91.50
22145;DHT22;11238;48.730;11.566;2023-07-16T15:15:08;26.70;91.00
22145;DHT22;11238;48.730;11.566;2023-07-16T15:17:36;26.70;89.90
22145;DHT22;11238;48.730;11.566;2023-07-16T15:20:01;26.90;91.20
22145;DHT22;11238;48.730;11.566;2023-07-16T15:22:27;27.00;90.60
22145;DHT22;11238;48.730;11.566;2023-07-16T15:24:53;27.10;90.50
22145;DHT22;11238;48.730;11.566;2023-07-16T15:27:19;27.10;90.70
22145;DHT22;11238;48.730;11.566;2023-07-16T15:29:44;27.10;91.10
22145;DHT22;11238;48.730;11.566;2023-07-16T15:32:10;26.90;87.90